Weather

Rainfall Maps have ended for the season and will begin again on June 1st.

*Note: Some stations are located near irrigated fields and may also report irrigation

Forrest Carberry Carberry North Wawanesa Glenboro Glenora Treherne Gladstone Portage East High Bluff Elm Creek Carman Winkler Kuhl Farm Morris St.Adolphe Steinbach Selkirk Macdonald Shilo Rivers Somerset Reinland Altona Starbuck St.Pierre Winkler




Elm Creek - Historical Weather Data
Date Max Temp (°C) Min Temp (°C) Avg Temp (°C) Rain (mm) Avg RH (%) Solar Radiation (W/m2)
4/25/2018 21.0 2.3 11.6 0.0 47.0 19.6
4/24/2018 12.7 -0.7 5.2 0.0 59.0 24.3
4/23/2018 16.6 4.2 10.3 0.0 54.0 22.1
4/22/2018 18.5 5.4 11.7 0.0 58.0 17.0
4/21/2018 19.0 -0.2 9.5 0.0 70.0 21.4
4/20/2018 15.8 -0.4 7.6 0.0 71.0 19.5
4/19/2018 14.0 -1.2 6.7 0.0 67.0 19.7
4/18/2018 12.7 -1.7 4.5 0.0 56.0 20.7
4/17/2018 11.7 -3.5 2.7 0.0 61.0 19.8
4/16/2018 7.6 -5.0 1.0 0.0 65.0 23.1
4/15/2018 5.8 -6.3 -0.5 0.0 60.0 22.5
4/14/2018 3.6 -8.1 -2.2 0.0 61.0 20.6
4/13/2018 -0.5 -8.8 -4.5 0.0 59.0 22.4
4/12/2018 1.4 -4.8 -1.9 1.4 75.0 19.6
4/11/2018 3.2 -4.4 -0.6 0.6 73.0 17.1
4/10/2018 4.9 -4.3 0.2 0.0 74.0 10.8
4/9/2018 3.4 -12.0 -3.5 0.0 65.0 19.9
4/8/2018 -1.1 -16.1 -7.8 0.0 67.0 21.3
4/7/2018 -3.4 -13.8 -8.7 0.0 66.0 21.9
4/6/2018 -4.3 -17.1 -11.1 0.0 70.0 21.5
4/5/2018 -3.6 -13.5 -6.7 0.4 69.0 18.0
4/4/2018 -0.4 -9.2 -5.0 0.0 65.0 19.2
4/3/2018 -2.1 -18.0 -10.2 0.0 62.0 20.8
4/2/2018 -9.8 -18.0 -13.9 0.0 63.0 20.8
4/1/2018 -0.8 -13.1 -7.0 0.0 62.0 20.3
3/31/2018 -7.7 -15.4 -11.2 0.0 63.0 20.2
3/30/2018 -7.7 -17.4 -12.3 0.0 66.0 19.0
3/29/2018 -6.2 -15.7 -9.8 0.0 74.0 18.0
3/28/2018 3.4 -7.5 -4.3 1.6 82.0 16.3
3/27/2018 9.2 -6.8 1.0 0.0 84.0 17.9
3/26/2018 3.3 -2.8 0.1 0.0 93.0 12.3
3/25/2018 3.0 -1.4 0.5 0.0 89.0 9.4
3/24/2018 1.4 -3.3 -1.8 0.0 91.0 8.3
3/23/2018 2.2 -8.5 -2.3 0.0 85.0 13.6
3/22/2018 3.3 -5.9 0.0 0.0 94.0 14.8
3/21/2018 0.6 -7.7 -2.1 0.0 97.0 10.9
3/20/2018 0.0 -7.3 -4.7 0.5 84.0 13.4
3/19/2018 -0.9 -7.6 -5.0 0.0 79.0 13.2
3/18/2018 2.0 -1.8 0.2 0.0 83.0 13.4
3/17/2018 1.1 -16.4 -6.5 0.0 76.0 17.1
3/16/2018 -1.1 -19.8 -11.0 0.0 85.0 17.2
3/15/2018 -4.5 -19.3 -11.5 0.0 79.0 17.1
3/14/2018 -0.5 -12.6 -5.0 0.0 82.0 16.9
3/13/2018 2.7 -19.8 -6.3 0.0 77.0 15.1
3/12/2018 -1.8 -10.7 -5.6 0.0 74.0 16.4
3/11/2018 1.3 -9.5 -3.6 0.0 76.0 15.9
3/10/2018 0.5 -14.1 -6.1 0.5 89.0 8.8
3/9/2018 -6.1 -18.9 -14.3 0.0 89.0 13.9
3/8/2018 -5.6 -21.4 -12.0 0.5 89.0 11.5
3/7/2018 -5.5 -18.9 -10.8 0.0 83.0 15.5
3/6/2018 -2.6 -13.5 -8.7 0.0 81.0 14.6
3/5/2018 0.6 -3.1 -0.9 5.6 98.0 6.0
3/4/2018 3.4 0.0 1.5 4.6 83.0 3.9
3/3/2018 3.8 -9.9 -2.0 0.0 77.0 11.2
3/2/2018 -1.1 -11.6 -5.5 0.0 83.0 9.8
3/1/2018 4.5 -9.5 -2.7 0.0 75.0 13.5
2/28/2018 2.8 -11.7 -4.1 0.0 78.0 12.7
2/27/2018 1.0 -10.3 -5.2 0.0 77.0 13.2
2/26/2018 2.9 -17.0 -6.2 0.0 77.0 11.0
2/25/2018 -1.5 -13.9 -8.3 0.0 84.0 11.5
2/24/2018 -1.3 -17.9 -9.8 0.3 83.0 9.7
2/23/2018 -6.6 -18.5 -13.0 0.0 78.0 12.0
2/22/2018 -8.2 -21.1 -14.6 0.0 81.0 12.3
2/21/2018 -10.6 -19.1 -15.0 0.0 71.0 10.0
2/20/2018 -10.6 -16.8 -13.8 0.7 75.0 10.0
2/19/2018 -14.9 -24.2 -18.8 0.0 71.0 9.4
2/18/2018 -11.1 -19.3 -15.5 0.0 77.0 7.3
2/17/2018 -8.5 -16.1 -12.0 0.0 72.0 10.9
2/16/2018 -6.6 -17.8 -12.3 0.0 72.0 7.9
2/15/2018 -11.1 -23.5 -19.1 0.0 72.0 10.3
2/14/2018 1.7 -11.1 -3.9 0.6 83.0 4.3
2/13/2018 -3.1 -21.0 -9.8 0.0 71.0 6.7
2/12/2018 -15.1 -26.4 -21.9 0.0 66.0 10.5
2/11/2018 -13.6 -25.1 -17.9 0.0 80.0 7.7
2/10/2018 -10.1 -19.6 -14.9 0.0 70.0 6.5
2/9/2018 -13.1 -23.8 -18.5 0.0 70.0 9.8
2/8/2018 -14.4 -24.0 -19.7 0.0 75.0 9.1
2/7/2018 -13.6 -22.3 -18.7 0.0 74.0 9.7
2/6/2018 -13.6 -22.3 -18.5 0.0 74.0 6.3
2/5/2018 -14.5 -23.1 -18.6 0.0 74.0 7.0
2/4/2018 -14.6 -26.4 -20.1 0.0 66.0 6.9
2/3/2018 -21.1 -26.3 -23.1 0.1 80.0 6.3
2/2/2018 -15.8 -26.1 -20.1 1.1 81.0 4.4
2/1/2018 -17.9 -24.1 -21.6 0.0 73.0 8.2
1/31/2018 -12.8 -20.7 -17.5 0.0 71.0 6.7
1/30/2018 1.2 -22.1 -11.9 1.0 85.0 4.0
1/29/2018 -17.2 -22.2 -19.6 0.0 79.0 7.7
1/28/2018 -19.7 -23.1 -21.1 0.0 80.0 6.7
1/27/2018 -8.5 -20.1 -15.1 0.2 87.0 4.0
1/26/2018 -2.2 -8.5 -4.3 0.1 94.0 1.8
1/25/2018 -4.4 -11.2 -6.8 0.0 96.0 1.3
1/24/2018 -3.5 -11.9 -9.2 0.0 90.0 1.6
1/23/2018 -3.5 -6.5 -5.3 0.0 90.0 0.9
1/22/2018 -3.6 -7.5 -5.7 0.0 87.0 2.0
1/21/2018 -4.9 -7.4 -6.6 0.0 91.0 1.0
1/20/2018 3.4 -8.5 -3.0 0.0 90.0 6.4
1/19/2018 5.0 -5.6 2.5 0.0 78.0 4.0
1/18/2018 -0.3 -6.8 -4.9 0.0 84.0 3.0
1/17/2018 4.4 -17.1 -4.3 0.2 72.0 6.6
1/16/2018 -10.1 -24.5 -16.8 0.0 66.0 4.6
1/15/2018 -23.0 -26.8 -25.0 0.0 78.0 5.7
1/14/2018 -13.5 -23.5 -17.9 1.3 85.0 3.1
1/13/2018 -16.5 -27.7 -22.0 0.0 70.0 6.5
1/12/2018 -18.3 -26.9 -23.7 0.0 69.0 6.4
1/11/2018 -19.7 -26.5 -23.4 0.6 77.0 5.1
1/10/2018 -1.9 -19.9 -11.9 0.4 88.0 2.5
1/9/2018 -0.6 -15.2 -6.7 0.0 91.0 3.7
1/8/2018 -2.4 -14.2 -8.6 0.0 80.0 5.5
1/7/2018 1.5 -11.6 -3.2 0.0 81.0 3.2
1/6/2018 -9.6 -22.5 -15.0 0.0 86.0 1.9
1/5/2018 -20.6 -29.2 -25.0 0.0 81.0 5.0
1/4/2018 -20.6 -27.9 -23.9 0.0 79.0 5.4
1/3/2018 -19.0 -23.9 -21.1 0.0 78.0 4.7
1/2/2018 -12.4 -23.7 -17.0 0.0 76.0 3.3
1/1/2018 -16.6 -25.4 -21.1 0.0 66.0 5.8
12/31/2017 -22.6 -30.6 -26.6 0.0 70.0 5.6
12/30/2017 -26.4 -33.4 -30.1 0.0 68.0 5.4
12/29/2017 -24.3 -28.9 -26.7 0.0 75.0 5.3
12/28/2017 -19.3 -26.5 -22.0 0.5 81.0 4.4
12/27/2017 -20.7 -30.9 -25.1 0.0 73.0 5.5
12/26/2017 -23.7 -28.1 -26.3 0.0 68.0 5.4
12/25/2017 -24.8 -28.6 -26.9 0.0 67.0 5.3
12/24/2017 -18.8 -26.4 -23.4 0.0 78.0 5.4
12/23/2017 -7.0 -23.6 -15.1 0.6 81.0 2.7
12/22/2017 -8.5 -15.3 -10.6 0.0 83.0 2.4
12/21/2017 -12.1 -21.4 -17.2 0.0 82.0 5.4
12/20/2017 -15.7 -20.8 -17.5 0.0 84.0 3.2
12/19/2017 -1.5 -17.7 -9.9 0.0 77.0 2.5
12/18/2017 1.9 -3.1 0.5 0.0 75.0 2.7
12/17/2017 1.4 -11.1 -4.9 0.0 81.0 5.4
12/16/2017 -5.1 -13.4 -10.0 0.0 94.0 3.0
12/15/2017 -8.4 -11.2 -9.9 0.5 92.0 2.3
12/14/2017 -6.0 -11.0 -7.9 0.2 90.0 2.3
12/13/2017 -3.2 -12.6 -7.0 0.0 91.0 2.1
12/12/2017 -0.6 -11.3 -6.1 0.0 95.0 3.3
12/11/2017 2.0 -15.7 -8.8 0.0 89.0 5.0
12/10/2017 -2.5 -9.5 -5.6 1.3 90.0 3.4
12/9/2017 1.5 -8.1 -4.7 0.0 77.0 2.6
12/8/2017 2.8 -8.8 -4.9 0.0 82.0 4.8
12/7/2017 -2.4 -14.2 -7.1 0.0 82.0 2.2
12/6/2017 -10.5 -15.1 -13.1 0.0 76.0 4.2
12/5/2017 -8.9 -14.5 -12.1 0.0 76.0 4.6
12/4/2017 -3.0 -12.5 -5.7 0.0 88.0 1.3
12/3/2017 1.9 -5.8 -2.4 0.0 88.0 2.7
12/2/2017 4.9 -8.7 -1.7 0.0 87.0 5.3
12/1/2017 1.7 -4.0 -0.9 0.0 86.0 2.6
11/30/2017 3.3 -1.5 0.5 0.0 83.0 4.8
11/29/2017 4.1 -6.4 -0.5 0.8 79.0 2.5
11/28/2017 4.2 -10.4 -3.4 0.1 68.0 5.0
11/27/2017 6.5 -5.9 1.3 0.3 83.0 3.0
11/26/2017 1.9 -7.6 -4.8 0.0 87.0 2.1
11/25/2017 -3.5 -12.1 -7.1 0.0 86.0 4.5
11/24/2017 6.3 -8.4 1.4 0.0 81.0 5.9
11/23/2017 6.4 -7.1 -3.0 0.0 89.0 3.5
11/22/2017 -5.8 -14.9 -9.3 0.2 87.0 2.9
11/21/2017 -6.1 -12.3 -9.8 0.1 79.0 6.4
11/20/2017 5.7 -9.3 -3.2 0.2 84.0 2.3
11/19/2017 -4.8 -12.9 -8.8 0.0 84.0 6.0
11/18/2017 -8.2 -12.2 -10.3 0.0 74.0 6.9
11/17/2017 1.5 -12.2 -6.2 0.0 78.0 6.8
11/16/2017 -1.2 -8.1 -4.9 0.0 90.0 1.6
11/15/2017 -2.4 -8.4 -6.7 0.0 89.0 4.0
11/14/2017 3.0 -7.3 -2.6 0.0 93.0 4.4
11/13/2017 -1.5 -9.4 -6.0 0.0 93.0 7.3
11/12/2017 -2.3 -9.0 -5.4 0.0 83.0 6.1
11/11/2017 -4.0 -9.1 -5.8 0.1 89.0 4.6
11/10/2017 -8.1 -23.1 -13.0 0.5 88.0 3.0
11/9/2017 -8.7 -23.3 -16.7 0.0 79.0 8.0
11/8/2017 -8.2 -16.4 -10.2 0.5 86.0 4.7
11/7/2017 -4.1 -15.1 -9.3 0.0 77.0 7.6
11/6/2017 -5.7 -12.8 -9.9 0.0 77.0 8.6
11/5/2017 -2.9 -9.6 -6.1 0.0 78.0 7.8
11/4/2017 -1.0 -4.3 -2.8 2.5 94.0 2.6
11/3/2017 -1.7 -9.0 -5.4 0.0 87.0 7.5
11/2/2017 -1.3 -7.4 -2.9 0.0 88.0 4.1
11/1/2017 0.0 -6.1 -2.5 0.2 92.0 3.4
10/31/2017 -1.8 -8.4 -4.8 0.0 83.0 6.3